Time;durP1;ratioP1;P1;durP2;ratioP2;P2;SDS_P1;SDS_P2;PMS_P1;PMS_P2;Temp;Humidity;BMP_temperature;BMP_pressure;BME280_temperature;BME280_humidity;BME280_pressure;Samples;Min_cycle;Max_cycle;Signal;HPM_P1;HPM_P2
2021/12/11 00:00:24;;;;;;;6.78;6.05;;;;;;;;;;4972819;28;20345;-47
2021/12/11 00:02:58;;;;;;;6.22;5.13;;;;;;;;;;4967677;28;20173;-47
2021/12/11 00:05:25;;;;;;;7.75;5.20;;;;;;;;;;4973796;28;20204;-47
2021/12/11 00:07:51;;;;;;;6.18;5.38;;;;;;;;;;4969131;28;20221;-47
2021/12/11 00:10:37;;;;;;;7.40;6.13;;;;;;;;;;4966559;28;20236;-47
2021/12/11 00:13:06;;;;;;;5.82;5.22;;;;;;;;;;4966754;28;20189;-47
2021/12/11 00:15:34;;;;;;;5.90;5.35;;;;;;;;;;4973536;28;20205;-47
2021/12/11 00:18:02;;;;;;;6.55;5.82;;;;;;;;;;4961641;28;20657;-47
2021/12/11 00:20:30;;;;;;;5.22;4.72;;;;;;;;;;4973774;28;20236;-47
2021/12/11 00:22:56;;;;;;;5.63;5.03;;;;;;;;;;4971317;28;20241;-47
2021/12/11 00:25:22;;;;;;;5.57;5.07;;;;;;;;;;4974490;28;20346;-47
2021/12/11 00:27:50;;;;;;;6.20;5.60;;;;;;;;;;4967140;28;20182;-47
2021/12/11 00:30:26;;;;;;;5.95;5.18;;;;;;;;;;4966377;28;20205;-47
2021/12/11 00:32:59;;;;;;;5.75;5.10;;;;;;;;;;4973698;28;20181;-47
2021/12/11 00:35:25;;;;;;;6.00;5.40;;;;;;;;;;4973458;28;20546;-47
2021/12/11 00:37:51;;;;;;;6.20;5.50;;;;;;;;;;4975083;28;20185;-47
2021/12/11 00:40:17;;;;;;;6.57;5.40;;;;;;;;;;4970791;28;20376;-47
2021/12/11 00:42:52;;;;;;;7.22;5.70;;;;;;;;;;4974663;28;20177;-47
2021/12/11 00:45:20;;;;;;;6.43;5.65;;;;;;;;;;4974491;28;20177;-47
2021/12/11 00:47:51;;;;;;;6.90;5.70;;;;;;;;;;4959539;28;20197;-47
2021/12/11 00:50:18;;;;;;;6.13;5.30;;;;;;;;;;4968166;28;20204;-47
2021/12/11 00:52:51;;;;;;;6.82;5.50;;;;;;;;;;4965953;28;20186;-47
2021/12/11 00:55:20;;;;;;;6.90;5.05;;;;;;;;;;4965986;28;20182;-47
2021/12/11 00:57:47;;;;;;;6.57;5.82;;;;;;;;;;4963709;28;20794;-47
2021/12/11 01:00:16;;;;;;;7.25;5.55;;;;;;;;;;4965158;28;20526;-47
2021/12/11 01:02:44;;;;;;;6.80;5.50;;;;;;;;;;4970335;28;20257;-47
2021/12/11 01:05:11;;;;;;;6.70;5.18;;;;;;;;;;4967816;28;20182;-47
2021/12/11 01:07:38;;;;;;;6.65;5.07;;;;;;;;;;4974701;28;20182;-47
2021/12/11 01:10:16;;;;;;;7.57;5.10;;;;;;;;;;4967275;28;20205;-47
2021/12/11 01:12:48;;;;;;;6.97;5.43;;;;;;;;;;4941596;29;20225;-47
2021/12/11 01:15:20;;;;;;;6.60;5.60;;;;;;;;;;4973516;28;20182;-47
2021/12/11 01:18:04;;;;;;;6.07;5.05;;;;;;;;;;4969850;28;20481;-47
2021/12/11 01:20:36;;;;;;;7.38;5.22;;;;;;;;;;4973206;28;20581;-47
2021/12/11 01:23:13;;;;;;;7.10;5.15;;;;;;;;;;4970001;28;20573;-47
2021/12/11 01:25:39;;;;;;;5.53;4.57;;;;;;;;;;4967484;28;20177;-47
2021/12/11 01:28:06;;;;;;;6.15;5.10;;;;;;;;;;4966431;28;20269;-47
2021/12/11 01:30:37;;;;;;;6.70;4.82;;;;;;;;;;4959020;28;20202;-47
2021/12/11 01:33:04;;;;;;;5.85;5.15;;;;;;;;;;4973898;28;20232;-47
2021/12/11 01:35:30;;;;;;;7.00;5.03;;;;;;;;;;4965134;28;20194;-47
2021/12/11 01:38:01;;;;;;;5.57;4.72;;;;;;;;;;4965801;28;20186;-47
2021/12/11 01:40:31;;;;;;;7.70;5.30;;;;;;;;;;4965288;28;20368;-47
2021/12/11 01:42:57;;;;;;;5.55;4.68;;;;;;;;;;4968162;28;20757;-47
2021/12/11 01:45:23;;;;;;;6.47;4.68;;;;;;;;;;4969239;28;20264;-47
2021/12/11 01:47:49;;;;;;;5.63;4.60;;;;;;;;;;4966402;28;20224;-47
2021/12/11 01:50:24;;;;;;;6.65;5.25;;;;;;;;;;4964851;28;20193;-47
2021/12/11 01:52:57;;;;;;;6.63;5.05;;;;;;;;;;4969498;28;20186;-47
2021/12/11 01:55:23;;;;;;;5.03;4.53;;;;;;;;;;4966942;28;20786;-47
2021/12/11 01:57:53;;;;;;;6.07;5.18;;;;;;;;;;4973543;28;20182;-47
2021/12/11 02:00:22;;;;;;;5.15;4.65;;;;;;;;;;4968122;28;20213;-47
2021/12/11 02:02:53;;;;;;;5.18;4.68;;;;;;;;;;4972859;28;20269;-47
2021/12/11 02:05:21;;;;;;;5.95;5.00;;;;;;;;;;4970282;28;20182;-47
2021/12/11 02:07:49;;;;;;;6.22;4.90;;;;;;;;;;4965968;28;20178;-47
2021/12/11 02:10:20;;;;;;;6.28;4.88;;;;;;;;;;4972345;28;20194;-47
2021/12/11 02:12:46;;;;;;;5.68;4.50;;;;;;;;;;4969076;28;20620;-47
2021/12/11 02:15:19;;;;;;;5.20;4.70;;;;;;;;;;4976301;28;20193;-48
2021/12/11 02:17:53;;;;;;;6.05;4.82;;;;;;;;;;4968811;28;20218;-47
2021/12/11 02:20:21;;;;;;;5.22;4.55;;;;;;;;;;4969315;28;20588;-47
2021/12/11 02:22:49;;;;;;;5.72;4.72;;;;;;;;;;4972862;28;20548;-47
2021/12/11 02:25:26;;;;;;;5.70;4.82;;;;;;;;;;4972351;28;20245;-47
2021/12/11 02:27:55;;;;;;;5.35;4.78;;;;;;;;;;4970885;28;20253;-47
2021/12/11 02:30:27;;;;;;;6.00;5.10;;;;;;;;;;4965280;28;20194;-47
2021/12/11 02:32:59;;;;;;;4.85;4.35;;;;;;;;;;4977844;28;20549;-47
2021/12/11 02:35:31;;;;;;;5.93;4.43;;;;;;;;;;4966305;28;20218;-47
2021/12/11 02:38:04;;;;;;;4.43;4.03;;;;;;;;;;4977765;28;20224;-47
2021/12/11 02:40:34;;;;;;;5.00;4.35;;;;;;;;;;4970244;28;20198;-47
2021/12/11 02:43:03;;;;;;;5.40;4.82;;;;;;;;;;4971284;28;20188;-47
2021/12/11 02:45:44;;;;;;;4.95;4.45;;;;;;;;;;4967657;28;20186;-47
2021/12/11 02:48:14;;;;;;;4.90;4.00;;;;;;;;;;4976985;28;20182;-47
2021/12/11 02:50:53;;;;;;;5.18;4.55;;;;;;;;;;4968772;28;20186;-47
2021/12/11 02:53:22;;;;;;;4.80;4.30;;;;;;;;;;4976646;28;20210;-47
2021/12/11 02:55:52;;;;;;;4.63;3.95;;;;;;;;;;4964733;28;20191;-47
2021/12/11 02:58:29;;;;;;;5.20;4.35;;;;;;;;;;4973693;28;20466;-47
2021/12/11 03:01:02;;;;;;;5.32;4.05;;;;;;;;;;4965955;28;20208;-47
2021/12/11 03:03:32;;;;;;;5.25;4.40;;;;;;;;;;4970577;28;20232;-47
2021/12/11 03:06:08;;;;;;;4.90;4.20;;;;;;;;;;4971803;28;20167;-47
2021/12/11 03:08:34;;;;;;;4.22;3.83;;;;;;;;;;4972401;28;20268;-47
2021/12/11 03:11:03;;;;;;;5.35;4.05;;;;;;;;;;4975370;28;20186;-47
2021/12/11 03:13:31;;;;;;;4.28;3.88;;;;;;;;;;4967499;28;20214;-47
2021/12/11 03:15:57;;;;;;;5.07;4.00;;;;;;;;;;4975980;28;20212;-47
2021/12/11 03:18:23;;;;;;;4.15;3.75;;;;;;;;;;4975554;28;20621;-47
2021/12/11 03:20:50;;;;;;;4.40;3.97;;;;;;;;;;4967227;28;20206;-47
2021/12/11 03:23:16;;;;;;;4.63;4.10;;;;;;;;;;4961207;28;20182;-47
2021/12/11 03:25:45;;;;;;;4.90;3.97;;;;;;;;;;4975550;28;20196;-47
2021/12/11 03:28:12;;;;;;;4.88;4.35;;;;;;;;;;4966182;28;20189;-47
2021/12/11 03:30:39;;;;;;;5.15;4.10;;;;;;;;;;4974891;28;20256;-47
2021/12/11 03:33:11;;;;;;;3.75;3.42;;;;;;;;;;4975399;28;20221;-47
2021/12/11 03:35:38;;;;;;;4.72;3.78;;;;;;;;;;4971597;28;20604;-47
2021/12/11 03:38:04;;;;;;;4.28;3.88;;;;;;;;;;4972774;28;20186;-47
2021/12/11 03:40:30;;;;;;;4.63;3.78;;;;;;;;;;4973856;28;20220;-47
2021/12/11 03:42:57;;;;;;;4.97;4.32;;;;;;;;;;4967944;28;20177;-47
2021/12/11 03:45:25;;;;;;;4.15;3.75;;;;;;;;;;4966976;28;20550;-46
2021/12/11 03:47:57;;;;;;;5.47;3.67;;;;;;;;;;4968450;28;20609;-46
2021/12/11 03:50:24;;;;;;;4.32;3.85;;;;;;;;;;4968905;28;20182;-46
2021/12/11 03:52:51;;;;;;;4.68;3.60;;;;;;;;;;4968382;28;20228;-46
2021/12/11 03:55:37;;;;;;;4.18;3.78;;;;;;;;;;4973953;28;20197;-46
2021/12/11 03:58:06;;;;;;;4.80;4.00;;;;;;;;;;4973320;28;20193;-46
2021/12/11 04:00:35;;;;;;;4.43;3.83;;;;;;;;;;4966727;28;20211;-46
2021/12/11 04:03:05;;;;;;;4.47;3.80;;;;;;;;;;4976410;28;20186;-47
2021/12/11 04:05:33;;;;;;;4.07;3.67;;;;;;;;;;4974497;28;20197;-47
2021/12/11 04:07:59;;;;;;;4.53;3.53;;;;;;;;;;4968566;28;20602;-47
2021/12/11 04:10:27;;;;;;;4.55;3.50;;;;;;;;;;4965861;28;20541;-47
2021/12/11 04:12:54;;;;;;;3.88;3.28;;;;;;;;;;4970613;28;20193;-47
2021/12/11 04:15:20;;;;;;;4.70;3.78;;;;;;;;;;4967661;28;20196;-47
2021/12/11 04:17:46;;;;;;;4.45;3.97;;;;;;;;;;4971542;28;20186;-47
2021/12/11 04:20:14;;;;;;;3.83;3.40;;;;;;;;;;4963533;28;20222;-47
2021/12/11 04:22:40;;;;;;;4.15;3.70;;;;;;;;;;4974611;28;20185;-47
2021/12/11 04:25:09;;;;;;;4.47;3.97;;;;;;;;;;4968984;28;20182;-47
2021/12/11 04:27:35;;;;;;;4.63;3.70;;;;;;;;;;4972839;28;20553;-47
2021/12/11 04:30:04;;;;;;;3.97;3.58;;;;;;;;;;4969597;28;20210;-47
2021/12/11 04:32:32;;;;;;;3.58;3.28;;;;;;;;;;4967787;28;20187;-47
2021/12/11 04:34:58;;;;;;;3.75;3.35;;;;;;;;;;4968948;28;20276;-47
2021/12/11 04:37:29;;;;;;;4.55;3.35;;;;;;;;;;4972483;28;20186;-47
2021/12/11 04:39:59;;;;;;;5.15;3.92;;;;;;;;;;4967591;28;20220;-47
2021/12/11 04:44:53;;;;;;;3.72;3.03;;;;;;;;;;4967229;28;20428;-47
2021/12/11 04:50:02;;;;;;;3.35;3.05;;;;;;;;;;4976573;28;20189;-47
2021/12/11 04:55:11;;;;;;;3.90;3.50;;;;;;;;;;4967128;28;20216;-47
2021/12/11 05:01:06;;;;;;;4.57;3.03;;;;;;;;;;4971568;28;20227;-47
2021/12/11 05:10:58;;;;;;;3.17;2.88;;;;;;;;;;4968625;28;20354;-46
2021/12/11 05:13:25;;;;;;;3.35;2.97;;;;;;;;;;4967219;28;20309;-46
2021/12/11 05:15:52;;;;;;;3.92;3.13;;;;;;;;;;4969563;28;20189;-46
2021/12/11 05:18:21;;;;;;;3.70;3.40;;;;;;;;;;4972758;28;20225;-47
2021/12/11 05:20:49;;;;;;;4.45;3.50;;;;;;;;;;4966744;28;20217;-47
2021/12/11 05:23:16;;;;;;;3.60;3.00;;;;;;;;;;4972697;28;20272;-47
2021/12/11 05:25:43;;;;;;;4.57;3.08;;;;;;;;;;4971406;28;20269;-47
2021/12/11 05:28:09;;;;;;;3.50;3.20;;;;;;;;;;4966659;28;20186;-47
2021/12/11 05:30:37;;;;;;;5.18;3.25;;;;;;;;;;4967046;28;20572;-48
2021/12/11 05:33:03;;;;;;;3.72;3.20;;;;;;;;;;4973900;28;20192;-47
2021/12/11 05:35:35;;;;;;;3.97;3.22;;;;;;;;;;4972821;28;20193;-47
2021/12/11 05:38:03;;;;;;;3.92;3.20;;;;;;;;;;4973121;28;20182;-47
2021/12/11 05:40:29;;;;;;;5.07;2.88;;;;;;;;;;4971179;28;20606;-47
2021/12/11 05:42:56;;;;;;;4.22;3.17;;;;;;;;;;4970404;28;20182;-47
2021/12/11 05:45:22;;;;;;;3.60;3.20;;;;;;;;;;4968218;28;20201;-47
2021/12/11 05:47:48;;;;;;;3.22;2.88;;;;;;;;;;4971836;28;20317;-47
2021/12/11 05:50:17;;;;;;;5.57;3.28;;;;;;;;;;4972537;28;20469;-47
2021/12/11 05:52:43;;;;;;;4.50;3.35;;;;;;;;;;4965039;28;20442;-47
2021/12/11 05:55:14;;;;;;;3.83;3.00;;;;;;;;;;4966217;28;20345;-47
2021/12/11 05:57:41;;;;;;;4.35;2.97;;;;;;;;;;4972717;28;20212;-47
2021/12/11 06:00:11;;;;;;;4.38;3.50;;;;;;;;;;4967539;28;20233;-47
2021/12/11 06:02:40;;;;;;;6.65;3.53;;;;;;;;;;4971118;28;20202;-47
2021/12/11 06:05:06;;;;;;;4.47;3.25;;;;;;;;;;4967710;28;20565;-47
2021/12/11 06:07:32;;;;;;;3.55;3.00;;;;;;;;;;4973084;28;20189;-47
2021/12/11 06:10:01;;;;;;;4.95;3.60;;;;;;;;;;4971712;28;20264;-47
2021/12/11 06:12:27;;;;;;;4.72;3.20;;;;;;;;;;4968589;28;20192;-47
2021/12/11 06:14:54;;;;;;;4.40;3.03;;;;;;;;;;4956375;28;20277;-47
2021/12/11 06:17:25;;;;;;;4.95;3.70;;;;;;;;;;4973242;28;20562;-47
2021/12/11 06:19:53;;;;;;;5.63;3.38;;;;;;;;;;4972170;28;20252;-47
2021/12/11 06:22:20;;;;;;;4.75;3.20;;;;;;;;;;4964719;28;20192;-47
2021/12/11 06:24:46;;;;;;;5.65;3.28;;;;;;;;;;4948753;28;20190;-47
2021/12/11 06:27:12;;;;;;;5.70;3.35;;;;;;;;;;4973770;28;20454;-47
2021/12/11 06:29:38;;;;;;;5.40;3.25;;;;;;;;;;4973158;28;20200;-47
2021/12/11 06:32:05;;;;;;;4.88;3.28;;;;;;;;;;4973129;28;20238;-47
2021/12/11 06:34:33;;;;;;;5.35;3.40;;;;;;;;;;4968780;28;20182;-47
2021/12/11 06:36:59;;;;;;;4.50;3.20;;;;;;;;;;4973335;28;20588;-47
2021/12/11 06:39:26;;;;;;;4.07;3.40;;;;;;;;;;4972853;28;20532;-47
2021/12/11 06:41:54;;;;;;;4.78;3.53;;;;;;;;;;4973171;28;20194;-47
2021/12/11 06:44:27;;;;;;;3.88;3.03;;;;;;;;;;4958380;28;20190;-46
2021/12/11 06:46:54;;;;;;;3.03;2.72;;;;;;;;;;4969499;28;20202;-46
2021/12/11 06:49:20;;;;;;;4.55;3.22;;;;;;;;;;4971200;28;20531;-46
2021/12/11 06:51:46;;;;;;;3.05;2.70;;;;;;;;;;4959649;28;20204;-46
2021/12/11 06:54:12;;;;;;;3.00;2.58;;;;;;;;;;4958403;28;20186;-46
2021/12/11 06:56:40;;;;;;;4.20;3.28;;;;;;;;;;4972555;28;20232;-46
2021/12/11 06:59:07;;;;;;;5.05;3.28;;;;;;;;;;4974350;28;20209;-47
2021/12/11 07:01:34;;;;;;;5.28;3.08;;;;;;;;;;4973136;28;20256;-47
2021/12/11 07:04:01;;;;;;;5.20;3.47;;;;;;;;;;4976212;28;20178;-47
2021/12/11 07:06:29;;;;;;;3.20;2.63;;;;;;;;;;4976229;28;20447;-47
2021/12/11 07:08:55;;;;;;;5.53;3.33;;;;;;;;;;4963496;28;20171;-47
2021/12/11 07:11:22;;;;;;;7.30;3.22;;;;;;;;;;4976012;28;20194;-47
2021/12/11 07:13:48;;;;;;;4.03;3.15;;;;;;;;;;4974877;28;20177;-47
2021/12/11 07:16:14;;;;;;;5.80;3.13;;;;;;;;;;4976173;28;20193;-47
2021/12/11 07:18:40;;;;;;;3.47;2.92;;;;;;;;;;4965609;28;20844;-47
2021/12/11 07:21:07;;;;;;;4.70;3.03;;;;;;;;;;4970816;28;20522;-47
2021/12/11 07:23:34;;;;;;;4.10;2.50;;;;;;;;;;4968013;28;20561;-47
2021/12/11 07:26:03;;;;;;;5.30;3.20;;;;;;;;;;4970563;28;20513;-47
2021/12/11 07:28:29;;;;;;;4.60;2.42;;;;;;;;;;4972593;28;20190;-47
2021/12/11 07:30:56;;;;;;;5.28;2.65;;;;;;;;;;4971094;28;20191;-47
2021/12/11 07:33:23;;;;;;;5.38;2.95;;;;;;;;;;4972433;28;20260;-47
2021/12/11 07:35:49;;;;;;;3.10;2.55;;;;;;;;;;4968441;28;20222;-47
2021/12/11 07:38:16;;;;;;;4.00;3.08;;;;;;;;;;4976528;28;20182;-47
2021/12/11 07:40:48;;;;;;;3.67;2.60;;;;;;;;;;4973773;28;20220;-48
2021/12/11 07:43:15;;;;;;;5.45;3.00;;;;;;;;;;4968270;28;20253;-47
2021/12/11 07:45:42;;;;;;;3.33;2.90;;;;;;;;;;4971086;28;20197;-47
2021/12/11 07:48:08;;;;;;;5.07;2.60;;;;;;;;;;4961681;28;20187;-47
2021/12/11 07:50:34;;;;;;;4.07;3.03;;;;;;;;;;4971140;28;20194;-47
2021/12/11 07:53:01;;;;;;;4.45;3.50;;;;;;;;;;4964987;28;20174;-47
2021/12/11 07:55:27;;;;;;;4.53;3.08;;;;;;;;;;4966192;28;20220;-47
2021/12/11 07:57:53;;;;;;;4.95;3.30;;;;;;;;;;4975334;28;20186;-47
2021/12/11 08:00:23;;;;;;;8.07;3.45;;;;;;;;;;4974979;28;20214;-47
2021/12/11 08:02:49;;;;;;;5.45;3.67;;;;;;;;;;4967643;28;20205;-47
2021/12/11 08:05:15;;;;;;;5.28;3.50;;;;;;;;;;4974646;28;20261;-47
2021/12/11 08:07:42;;;;;;;4.60;3.30;;;;;;;;;;4949529;28;20178;-48
2021/12/11 08:10:10;;;;;;;6.25;3.90;;;;;;;;;;4971168;28;20234;-47
2021/12/11 08:12:36;;;;;;;4.55;3.30;;;;;;;;;;4965735;28;20205;-46
2021/12/11 08:15:03;;;;;;;4.50;3.55;;;;;;;;;;4970483;28;20656;-47
2021/12/11 08:17:29;;;;;;;5.40;3.50;;;;;;;;;;4971448;28;20193;-47
2021/12/11 08:19:55;;;;;;;7.13;4.28;;;;;;;;;;4954345;28;20202;-47
2021/12/11 08:22:22;;;;;;;6.15;3.80;;;;;;;;;;4973000;28;20242;-47
2021/12/11 08:24:48;;;;;;;4.28;3.60;;;;;;;;;;4974068;28;20186;-47
2021/12/11 08:27:18;;;;;;;8.45;4.43;;;;;;;;;;4975078;28;20251;-47
2021/12/11 08:29:45;;;;;;;5.65;3.92;;;;;;;;;;4971398;28;20194;-47
2021/12/11 08:32:11;;;;;;;6.65;3.70;;;;;;;;;;4971269;28;20568;-47
2021/12/11 08:34:38;;;;;;;5.32;4.15;;;;;;;;;;4969258;28;20275;-47
2021/12/11 08:37:05;;;;;;;6.20;4.57;;;;;;;;;;4972813;28;20178;-47
2021/12/11 08:39:31;;;;;;;6.93;4.45;;;;;;;;;;4971707;28;20209;-47
2021/12/11 08:41:58;;;;;;;6.95;4.40;;;;;;;;;;4956428;28;20181;-47
2021/12/11 08:44:25;;;;;;;5.75;4.22;;;;;;;;;;4972593;28;20276;-47
2021/12/11 08:46:56;;;;;;;7.82;4.47;;;;;;;;;;4973271;28;20935;-46
2021/12/11 08:49:24;;;;;;;5.60;4.13;;;;;;;;;;4952603;28;20236;-47
2021/12/11 08:52:02;;;;;;;5.85;4.20;;;;;;;;;;4967405;28;20261;-47
2021/12/11 08:54:29;;;;;;;5.85;4.28;;;;;;;;;;4970330;28;20185;-47
2021/12/11 08:56:56;;;;;;;8.23;4.88;;;;;;;;;;4951314;28;20221;-47
2021/12/11 08:59:24;;;;;;;5.70;4.28;;;;;;;;;;4969589;28;20480;-47
2021/12/11 09:01:59;;;;;;;8.52;4.82;;;;;;;;;;4972596;28;20174;-47
2021/12/11 09:04:25;;;;;;;9.05;4.40;;;;;;;;;;4972538;28;20243;-46
2021/12/11 09:06:53;;;;;;;8.73;5.07;;;;;;;;;;4973612;28;20913;-47
2021/12/11 09:09:26;;;;;;;8.80;4.78;;;;;;;;;;4969161;28;20653;-47
2021/12/11 09:11:59;;;;;;;6.65;4.63;;;;;;;;;;4967405;28;20189;-47
2021/12/11 09:14:24;;;;;;;6.57;4.55;;;;;;;;;;4965386;28;20222;-47
2021/12/11 09:17:11;;;;;;;7.65;4.60;;;;;;;;;;4968690;28;20178;-47
2021/12/11 09:19:43;;;;;;;7.85;5.18;;;;;;;;;;4970779;28;20213;-47
2021/12/11 09:22:18;;;;;;;6.63;4.57;;;;;;;;;;4971629;28;20185;-47
2021/12/11 09:24:51;;;;;;;9.65;5.25;;;;;;;;;;4964636;28;20243;-46
2021/12/11 09:27:25;;;;;;;6.60;4.80;;;;;;;;;;4965046;28;20198;-46
2021/12/11 09:29:55;;;;;;;6.80;4.53;;;;;;;;;;4968373;28;20460;-46
2021/12/11 09:32:39;;;;;;;7.68;5.15;;;;;;;;;;4967464;28;20186;-46
2021/12/11 09:35:12;;;;;;;7.28;4.57;;;;;;;;;;4972215;28;20194;-47
2021/12/11 09:37:39;;;;;;;6.07;4.90;;;;;;;;;;4969364;28;20185;-46
2021/12/11 09:40:10;;;;;;;7.63;4.85;;;;;;;;;;4966191;28;20241;-46
2021/12/11 09:42:38;;;;;;;7.95;5.50;;;;;;;;;;4972476;28;20401;-46
2021/12/11 09:45:13;;;;;;;6.43;5.00;;;;;;;;;;4964102;28;20209;-46
2021/12/11 09:47:41;;;;;;;6.85;4.90;;;;;;;;;;4961566;28;20202;-47
2021/12/11 09:50:18;;;;;;;6.18;4.70;;;;;;;;;;4965137;28;20244;-47
2021/12/11 09:52:46;;;;;;;9.98;4.70;;;;;;;;;;4965435;28;20264;-47
2021/12/11 09:55:18;;;;;;;5.78;4.93;;;;;;;;;;4965324;28;20580;-47
2021/12/11 09:57:49;;;;;;;7.80;5.20;;;;;;;;;;4973450;28;20201;-46
2021/12/11 10:00:18;;;;;;;5.72;4.85;;;;;;;;;;4966435;28;20265;-46
2021/12/11 10:02:44;;;;;;;6.68;4.50;;;;;;;;;;4972825;28;20647;-46
2021/12/11 10:05:30;;;;;;;6.07;4.68;;;;;;;;;;4962946;28;20182;-46
2021/12/11 10:08:24;;;;;;;5.70;4.55;;;;;;;;;;4966907;28;20429;-46
2021/12/11 10:10:47;;;;;;;4.75;4.03;;;;;;;;;;4962915;28;20596;-46
2021/12/11 10:13:13;;;;;;;7.38;4.45;;;;;;;;;;4973153;28;20204;-46
2021/12/11 10:15:41;;;;;;;4.90;4.35;;;;;;;;;;4972840;28;20194;-46
2021/12/11 10:18:10;;;;;;;5.35;4.03;;;;;;;;;;4955982;28;20745;-46
2021/12/11 10:20:45;;;;;;;6.20;4.32;;;;;;;;;;4969678;28;20252;-47
2021/12/11 10:23:12;;;;;;;5.30;4.30;;;;;;;;;;4973403;28;20284;-46
2021/12/11 10:25:38;;;;;;;7.32;4.93;;;;;;;;;;4955700;28;20186;-46
2021/12/11 10:28:06;;;;;;;5.15;4.38;;;;;;;;;;4972905;28;20455;-46
2021/12/11 10:30:34;;;;;;;6.93;4.47;;;;;;;;;;4964400;28;20190;-46
2021/12/11 10:33:00;;;;;;;5.30;4.30;;;;;;;;;;4975286;28;20190;-46
2021/12/11 10:35:28;;;;;;;7.50;4.53;;;;;;;;;;4972602;28;20198;-46
2021/12/11 10:37:54;;;;;;;5.72;4.50;;;;;;;;;;4975486;28;20193;-46
2021/12/11 10:40:23;;;;;;;7.10;4.30;;;;;;;;;;4968509;28;20218;-46
2021/12/11 10:42:52;;;;;;;7.07;4.18;;;;;;;;;;4977278;28;20733;-46
2021/12/11 10:45:18;;;;;;;7.30;4.63;;;;;;;;;;4969201;28;20276;-46
2021/12/11 10:47:48;;;;;;;6.15;4.45;;;;;;;;;;4975806;28;20339;-46
2021/12/11 10:50:17;;;;;;;5.72;4.32;;;;;;;;;;4970077;28;20181;-46
2021/12/11 10:52:43;;;;;;;5.47;4.65;;;;;;;;;;4950809;28;20197;-46
2021/12/11 10:55:11;;;;;;;5.95;4.45;;;;;;;;;;4954844;28;20186;-46
2021/12/11 10:57:38;;;;;;;4.22;3.83;;;;;;;;;;4976714;28;20202;-46
2021/12/11 11:00:11;;;;;;;4.43;3.85;;;;;;;;;;4966202;28;20221;-46
2021/12/11 11:02:37;;;;;;;4.93;4.07;;;;;;;;;;4971685;28;20186;-46
2021/12/11 11:05:23;;;;;;;5.07;3.90;;;;;;;;;;4970743;28;20254;-46
2021/12/11 11:07:49;;;;;;;5.03;4.00;;;;;;;;;;4969144;28;20726;-46
2021/12/11 11:10:18;;;;;;;4.97;3.90;;;;;;;;;;4972510;28;20192;-46
2021/12/11 11:12:45;;;;;;;5.43;3.97;;;;;;;;;;4968726;28;20296;-46
2021/12/11 11:15:12;;;;;;;5.63;4.00;;;;;;;;;;4975773;28;20212;-46
2021/12/11 11:17:38;;;;;;;6.15;4.07;;;;;;;;;;4970514;28;20195;-47
2021/12/11 11:20:10;;;;;;;4.47;4.03;;;;;;;;;;4969561;28;20209;-47
2021/12/11 11:22:37;;;;;;;3.85;3.55;;;;;;;;;;4976412;28;20581;-47
2021/12/11 11:25:05;;;;;;;4.07;3.67;;;;;;;;;;4964524;28;20182;-47
2021/12/11 11:27:31;;;;;;;4.53;4.05;;;;;;;;;;4966453;28;20209;-47
2021/12/11 11:29:58;;;;;;;4.03;3.63;;;;;;;;;;4965292;28;20209;-47
2021/12/11 11:32:31;;;;;;;4.45;3.75;;;;;;;;;;4974295;28;20316;-47
2021/12/11 11:35:06;;;;;;;4.72;3.85;;;;;;;;;;4970558;28;20580;-47
2021/12/11 11:37:35;;;;;;;4.50;4.03;;;;;;;;;;4971618;28;20328;-47
2021/12/11 11:40:02;;;;;;;4.45;3.80;;;;;;;;;;4966863;28;20214;-47
2021/12/11 11:42:28;;;;;;;4.80;3.65;;;;;;;;;;4972019;28;20573;-47
2021/12/11 11:44:55;;;;;;;3.47;3.17;;;;;;;;;;4967846;28;20194;-47
2021/12/11 11:47:21;;;;;;;4.13;3.70;;;;;;;;;;4975017;28;20504;-47
2021/12/11 11:49:48;;;;;;;3.95;3.65;;;;;;;;;;4975779;28;20261;-47
2021/12/11 11:52:19;;;;;;;4.30;3.60;;;;;;;;;;4975538;28;20197;-46
2021/12/11 11:54:47;;;;;;;3.70;3.22;;;;;;;;;;4964232;28;20189;-47
2021/12/11 11:57:17;;;;;;;3.78;3.47;;;;;;;;;;4974033;28;20303;-47
2021/12/11 11:59:43;;;;;;;4.30;3.30;;;;;;;;;;4976144;28;20498;-47
2021/12/11 12:02:14;;;;;;;3.92;3.28;;;;;;;;;;4958564;28;20189;-47
2021/12/11 12:04:40;;;;;;;3.90;3.50;;;;;;;;;;4974144;28;20192;-47
2021/12/11 12:07:07;;;;;;;4.55;4.10;;;;;;;;;;4975493;28;20193;-47
2021/12/11 12:09:35;;;;;;;4.50;3.45;;;;;;;;;;4967671;28;20281;-47
2021/12/11 12:12:02;;;;;;;4.53;3.53;;;;;;;;;;4969976;28;20191;-47
2021/12/11 12:14:33;;;;;;;3.58;3.28;;;;;;;;;;4966161;28;20659;-47
2021/12/11 12:17:00;;;;;;;3.50;3.08;;;;;;;;;;4974657;28;20178;-47
2021/12/11 12:19:26;;;;;;;3.75;3.35;;;;;;;;;;4969831;28;20293;-47
2021/12/11 12:21:53;;;;;;;3.85;3.47;;;;;;;;;;4968161;28;20178;-47
2021/12/11 12:24:21;;;;;;;3.65;3.13;;;;;;;;;;4971315;28;20182;-47
2021/12/11 12:26:50;;;;;;;5.13;3.60;;;;;;;;;;4967313;28;20189;-47
2021/12/11 12:29:16;;;;;;;3.40;3.10;;;;;;;;;;4975097;28;20182;-47
2021/12/11 12:31:48;;;;;;;3.58;3.25;;;;;;;;;;4972056;28;20182;-47
2021/12/11 12:34:15;;;;;;;3.72;3.30;;;;;;;;;;4954505;28;20596;-47
2021/12/11 12:36:44;;;;;;;3.70;3.40;;;;;;;;;;4973772;28;20194;-47
2021/12/11 12:39:11;;;;;;;3.90;3.33;;;;;;;;;;4973256;28;20209;-46
2021/12/11 12:41:39;;;;;;;3.78;3.30;;;;;;;;;;4974452;28;20273;-46
2021/12/11 12:46:45;;;;;;;4.07;3.53;;;;;;;;;;4969545;28;20272;-47
2021/12/11 12:49:11;;;;;;;4.15;3.30;;;;;;;;;;4974789;28;20248;-46
2021/12/11 12:51:38;;;;;;;3.58;3.28;;;;;;;;;;4964732;28;20193;-46
2021/12/11 12:54:06;;;;;;;4.43;3.38;;;;;;;;;;4968862;28;20280;-46
2021/12/11 12:56:45;;;;;;;4.15;3.38;;;;;;;;;;4969701;28;20228;-46
2021/12/11 12:59:32;;;;;;;3.03;2.75;;;;;;;;;;4964455;28;20561;-46
2021/12/11 13:02:05;;;;;;;3.78;3.40;;;;;;;;;;4962307;28;20498;-46
2021/12/11 13:04:34;;;;;;;3.63;3.25;;;;;;;;;;4972709;28;20169;-47
2021/12/11 13:07:02;;;;;;;4.78;3.47;;;;;;;;;;4969100;28;20284;-47
2021/12/11 13:09:41;;;;;;;3.80;3.42;;;;;;;;;;4971437;28;20217;-47
2021/12/11 13:12:07;;;;;;;3.63;3.33;;;;;;;;;;4974092;28;20216;-47
2021/12/11 13:14:33;;;;;;;3.67;3.10;;;;;;;;;;4967987;28;20204;-47
2021/12/11 13:17:09;;;;;;;4.00;3.58;;;;;;;;;;4973939;28;20185;-47
2021/12/11 13:19:39;;;;;;;3.83;3.45;;;;;;;;;;4982316;28;20609;-47
2021/12/11 13:22:17;;;;;;;3.90;3.47;;;;;;;;;;4974343;28;20178;-47
2021/12/11 13:24:48;;;;;;;3.72;3.35;;;;;;;;;;4960702;28;20183;-47
2021/12/11 13:27:16;;;;;;;3.85;3.55;;;;;;;;;;4956390;28;20186;-46
2021/12/11 13:29:43;;;;;;;4.15;3.28;;;;;;;;;;4970787;28;20191;-47
2021/12/11 13:32:14;;;;;;;4.35;3.45;;;;;;;;;;4970593;28;20189;-47
2021/12/11 13:34:41;;;;;;;4.07;3.67;;;;;;;;;;4970335;28;20217;-47
2021/12/11 13:37:09;;;;;;;4.97;3.70;;;;;;;;;;4959053;28;20494;-47
2021/12/11 13:39:37;;;;;;;5.22;3.60;;;;;;;;;;4965699;28;20246;-47
2021/12/11 13:42:06;;;;;;;4.20;3.80;;;;;;;;;;4964258;28;20741;-47
2021/12/11 13:44:33;;;;;;;5.20;4.53;;;;;;;;;;4962121;28;20587;-47
2021/12/11 13:47:00;;;;;;;6.80;4.45;;;;;;;;;;4963558;28;20206;-47
2021/12/11 13:49:30;;;;;;;5.78;4.10;;;;;;;;;;4964448;28;20190;-47
2021/12/11 13:51:56;;;;;;;4.75;4.10;;;;;;;;;;4964467;28;20282;-47
2021/12/11 13:54:24;;;;;;;7.43;4.45;;;;;;;;;;4963982;28;20218;-47
2021/12/11 13:56:53;;;;;;;6.25;4.72;;;;;;;;;;4954339;28;20244;-47
2021/12/11 13:59:20;;;;;;;7.95;4.50;;;;;;;;;;4973766;28;20202;-47
2021/12/11 14:01:47;;;;;;;6.70;5.10;;;;;;;;;;4973308;28;20185;-46
2021/12/11 14:04:16;;;;;;;7.40;4.20;;;;;;;;;;4965023;28;20190;-46
2021/12/11 14:06:48;;;;;;;7.53;4.45;;;;;;;;;;4973664;28;20198;-46
2021/12/11 14:09:16;;;;;;;7.80;4.65;;;;;;;;;;4969750;28;20455;-46
2021/12/11 14:11:42;;;;;;;6.68;4.50;;;;;;;;;;4970534;28;20289;-46
2021/12/11 14:14:09;;;;;;;6.85;4.80;;;;;;;;;;4977169;28;20212;-47
2021/12/11 14:16:35;;;;;;;8.65;4.80;;;;;;;;;;4975956;28;20193;-47
2021/12/11 14:19:01;;;;;;;8.30;5.00;;;;;;;;;;4969737;28;20178;-46
2021/12/11 14:21:28;;;;;;;5.97;4.40;;;;;;;;;;4977337;28;20181;-46
2021/12/11 14:23:55;;;;;;;6.65;4.47;;;;;;;;;;4968790;28;20178;-46
2021/12/11 14:26:22;;;;;;;7.78;4.10;;;;;;;;;;4973234;28;20571;-46
2021/12/11 14:28:53;;;;;;;6.22;4.38;;;;;;;;;;4973566;28;20182;-46
2021/12/11 14:31:20;;;;;;;8.27;4.32;;;;;;;;;;4974709;28;20241;-46
2021/12/11 14:33:47;;;;;;;5.78;4.63;;;;;;;;;;4967521;28;20185;-46
2021/12/11 14:36:15;;;;;;;5.57;4.18;;;;;;;;;;4977077;28;20197;-46
2021/12/11 14:38:42;;;;;;;7.03;4.55;;;;;;;;;;4972899;28;20249;-46
2021/12/11 14:41:09;;;;;;;5.80;4.40;;;;;;;;;;4965199;28;20221;-46
2021/12/11 14:43:36;;;;;;;5.53;4.50;;;;;;;;;;4973903;28;20596;-46
2021/12/11 14:46:03;;;;;;;5.32;4.28;;;;;;;;;;4974100;28;20177;-46
2021/12/11 14:48:30;;;;;;;6.75;4.40;;;;;;;;;;4975849;28;20194;-46
2021/12/11 14:50:58;;;;;;;5.82;4.20;;;;;;;;;;4969623;28;20276;-46
2021/12/11 14:53:27;;;;;;;4.85;3.95;;;;;;;;;;4970764;28;20216;-46
2021/12/11 14:55:55;;;;;;;7.32;4.35;;;;;;;;;;4976580;28;20227;-47
2021/12/11 14:58:22;;;;;;;5.30;3.80;;;;;;;;;;4976212;28;20632;-47
2021/12/11 15:01:11;;;;;;;6.10;4.00;;;;;;;;;;4970474;28;20198;-46
2021/12/11 15:03:37;;;;;;;6.88;4.13;;;;;;;;;;4962308;28;20326;-46
2021/12/11 15:06:03;;;;;;;5.55;4.05;;;;;;;;;;4971471;28;20233;-46
2021/12/11 15:08:29;;;;;;;5.55;3.97;;;;;;;;;;4975997;28;20557;-46
2021/12/11 15:10:59;;;;;;;4.47;3.90;;;;;;;;;;4976241;28;20265;-46
2021/12/11 15:13:25;;;;;;;5.25;4.05;;;;;;;;;;4976291;28;20189;-46